Time;durP1;ratioP1;P1;durP2;ratioP2;P2;SDS_P1;SDS_P2;PMS_P1;PMS_P2;Temp;Humidity;BMP_temperature;BMP_pressure;BME280_temperature;BME280_humidity;BME280_pressure;Samples;Min_cycle;Max_cycle;Signal;HPM_P1;HPM_P2
2020/01/12 00:00:56;;;;;;;20.75;12.15;;;;;;;-2.39;80.76465;96338.42;;;;
2020/01/12 00:01:57;;;;;;;20.75;12.15;;;;;;;-2.39;80.76465;96338.42;;;;
2020/01/12 00:02:57;;;;;;;20.75;12.15;;;;;;;-2.39;80.76465;96338.42;;;;
2020/01/12 00:03:57;;;;;;;20.75;12.15;;;;;;;-2.39;80.76465;96338.42;;;;
2020/01/12 00:04:58;;;;;;;20.75;12.15;;;;;;;-2.39;80.76465;96338.42;;;;
2020/01/12 00:05:58;;;;;;;20.75;12.15;;;;;;;-2.39;80.76465;96338.42;;;;
2020/01/12 00:06:59;;;;;;;20.75;12.15;;;;;;;-2.39;80.76465;96338.42;;;;
2020/01/12 00:07:59;;;;;;;20.75;12.15;;;;;;;-2.39;80.76465;96338.42;;;;
2020/01/12 00:09:00;;;;;;;20.75;12.15;;;;;;;-2.39;80.76465;96338.42;;;;
2020/01/12 00:10:00;;;;;;;20.75;12.15;;;;;;;-2.39;80.76465;96338.42;;;;
2020/01/12 00:11:01;;;;;;;27.15;13.85;;;;;;;-2.43;80.92285;96321.59;;;;
2020/01/12 00:13:06;;;;;;;27.15;13.85;;;;;;;-2.43;80.92285;96321.59;;;;
2020/01/12 00:14:07;;;;;;;27.15;13.85;;;;;;;-2.43;80.92285;96321.59;;;;
2020/01/12 00:15:12;;;;;;;27.15;13.85;;;;;;;-2.43;80.92285;96321.59;;;;
2020/01/12 00:16:50;;;;;;;27.15;13.85;;;;;;;-2.43;80.92285;96321.59;;;;
2020/01/12 00:17:51;;;;;;;27.15;13.85;;;;;;;-2.43;80.92285;96321.59;;;;
2020/01/12 00:18:51;;;;;;;27.15;13.85;;;;;;;-2.43;80.92285;96321.59;;;;
2020/01/12 00:19:52;;;;;;;27.15;13.85;;;;;;;-2.43;80.92285;96321.59;;;;
2020/01/12 00:20:52;;;;;;;27.15;13.85;;;;;;;-2.43;80.92285;96321.59;;;;
2020/01/12 00:21:53;;;;;;;21.2;12.5;;;;;;;-2.54;80.95508;96319.45;;;;
2020/01/12 00:22:53;;;;;;;21.2;12.5;;;;;;;-2.54;80.95508;96319.45;;;;
2020/01/12 00:23:54;;;;;;;21.2;12.5;;;;;;;-2.54;80.95508;96319.45;;;;
2020/01/12 00:24:54;;;;;;;21.2;12.5;;;;;;;-2.54;80.95508;96319.45;;;;
2020/01/12 00:25:55;;;;;;;21.2;12.5;;;;;;;-2.54;80.95508;96319.45;;;;
2020/01/12 00:26:55;;;;;;;21.2;12.5;;;;;;;-2.54;80.95508;96319.45;;;;
2020/01/12 00:29:02;;;;;;;21.2;12.5;;;;;;;-2.54;80.95508;96319.45;;;;
2020/01/12 00:30:03;;;;;;;21.2;12.5;;;;;;;-2.54;80.95508;96319.45;;;;
2020/01/12 00:31:04;;;;;;;21.2;12.5;;;;;;;-2.54;80.95508;96319.45;;;;
2020/01/12 00:32:04;;;;;;;19.8;11.75;;;;;;;-2.58;81.00781;96302.23;;;;
2020/01/12 00:33:05;;;;;;;19.8;11.75;;;;;;;-2.58;81.00781;96302.23;;;;
2020/01/12 00:34:05;;;;;;;19.8;11.75;;;;;;;-2.58;81.00781;96302.23;;;;
2020/01/12 00:35:06;;;;;;;19.8;11.75;;;;;;;-2.58;81.00781;96302.23;;;;
2020/01/12 00:36:06;;;;;;;19.8;11.75;;;;;;;-2.58;81.00781;96302.23;;;;
2020/01/12 00:37:07;;;;;;;19.8;11.75;;;;;;;-2.58;81.00781;96302.23;;;;
2020/01/12 00:38:07;;;;;;;19.8;11.75;;;;;;;-2.58;81.00781;96302.23;;;;
2020/01/12 00:39:08;;;;;;;19.8;11.75;;;;;;;-2.58;81.00781;96302.23;;;;
2020/01/12 00:40:08;;;;;;;19.8;11.75;;;;;;;-2.58;81.00781;96302.23;;;;
2020/01/12 00:41:09;;;;;;;19.8;11.75;;;;;;;-2.58;81.00781;96302.23;;;;
2020/01/12 00:42:09;;;;;;;19.8;11.75;;;;;;;-2.58;81.00781;96302.23;;;;
2020/01/12 00:43:10;;;;;;;18.2;10.85;;;;;;;-2.7;81.0791;96303.2;;;;
2020/01/12 00:44:10;;;;;;;18.2;10.85;;;;;;;-2.7;81.0791;96303.2;;;;
2020/01/12 00:45:11;;;;;;;18.2;10.85;;;;;;;-2.7;81.0791;96303.2;;;;
2020/01/12 00:46:11;;;;;;;18.2;10.85;;;;;;;-2.7;81.0791;96303.2;;;;
2020/01/12 00:47:12;;;;;;;18.2;10.85;;;;;;;-2.7;81.0791;96303.2;;;;
2020/01/12 00:48:12;;;;;;;18.2;10.85;;;;;;;-2.7;81.0791;96303.2;;;;
2020/01/12 00:49:13;;;;;;;18.2;10.85;;;;;;;-2.7;81.0791;96303.2;;;;
2020/01/12 00:50:13;;;;;;;18.2;10.85;;;;;;;-2.7;81.0791;96303.2;;;;
2020/01/12 00:51:13;;;;;;;18.2;10.85;;;;;;;-2.7;81.0791;96303.2;;;;
2020/01/12 00:52:14;;;;;;;18.2;10.85;;;;;;;-2.7;81.0791;96303.2;;;;
2020/01/12 00:53:14;;;;;;;19.5;10.95;;;;;;;-2.74;81.14453;96308.84;;;;
2020/01/12 00:54:15;;;;;;;19.5;10.95;;;;;;;-2.74;81.14453;96308.84;;;;
2020/01/12 00:55:15;;;;;;;19.5;10.95;;;;;;;-2.74;81.14453;96308.84;;;;
2020/01/12 00:56:16;;;;;;;19.5;10.95;;;;;;;-2.74;81.14453;96308.84;;;;
2020/01/12 00:57:16;;;;;;;19.5;10.95;;;;;;;-2.74;81.14453;96308.84;;;;
2020/01/12 00:58:17;;;;;;;19.5;10.95;;;;;;;-2.74;81.14453;96308.84;;;;
2020/01/12 00:59:17;;;;;;;19.5;10.95;;;;;;;-2.74;81.14453;96308.84;;;;
2020/01/12 01:00:18;;;;;;;19.5;10.95;;;;;;;-2.74;81.14453;96308.84;;;;
2020/01/12 01:01:19;;;;;;;19.5;10.95;;;;;;;-2.74;81.14453;96308.84;;;;
2020/01/12 01:02:19;;;;;;;19.5;10.95;;;;;;;-2.74;81.14453;96308.84;;;;
2020/01/12 01:03:20;;;;;;;19.5;10.95;;;;;;;-2.74;81.14453;96308.84;;;;
2020/01/12 01:04:20;;;;;;;17.5;10.05;;;;;;;-2.81;81.19238;96310.38;;;;
2020/01/12 01:05:21;;;;;;;17.5;10.05;;;;;;;-2.81;81.19238;96310.38;;;;
2020/01/12 01:06:21;;;;;;;17.5;10.05;;;;;;;-2.81;81.19238;96310.38;;;;
2020/01/12 01:07:22;;;;;;;17.5;10.05;;;;;;;-2.81;81.19238;96310.38;;;;
2020/01/12 01:08:22;;;;;;;17.5;10.05;;;;;;;-2.81;81.19238;96310.38;;;;
2020/01/12 01:09:23;;;;;;;17.5;10.05;;;;;;;-2.81;81.19238;96310.38;;;;
2020/01/12 01:10:27;;;;;;;17.5;10.05;;;;;;;-2.81;81.19238;96310.38;;;;
2020/01/12 01:11:31;;;;;;;17.5;10.05;;;;;;;-2.81;81.19238;96310.38;;;;
2020/01/12 01:12:32;;;;;;;17.5;10.05;;;;;;;-2.81;81.19238;96310.38;;;;
2020/01/12 01:13:32;;;;;;;17.5;10.05;;;;;;;-2.81;81.19238;96310.38;;;;
2020/01/12 01:14:33;;;;;;;17.9;10.1;;;;;;;-2.84;81.19727;96306.59;;;;
2020/01/12 01:15:33;;;;;;;17.9;10.1;;;;;;;-2.84;81.19727;96306.59;;;;
2020/01/12 01:16:34;;;;;;;17.9;10.1;;;;;;;-2.84;81.19727;96306.59;;;;
2020/01/12 01:17:35;;;;;;;17.9;10.1;;;;;;;-2.84;81.19727;96306.59;;;;
2020/01/12 01:18:36;;;;;;;17.9;10.1;;;;;;;-2.84;81.19727;96306.59;;;;
2020/01/12 01:19:36;;;;;;;17.9;10.1;;;;;;;-2.84;81.19727;96306.59;;;;
2020/01/12 01:20:37;;;;;;;17.9;10.1;;;;;;;-2.84;81.19727;96306.59;;;;
2020/01/12 01:21:37;;;;;;;17.9;10.1;;;;;;;-2.84;81.19727;96306.59;;;;
2020/01/12 01:22:40;;;;;;;17.9;10.1;;;;;;;-2.84;81.19727;96306.59;;;;
2020/01/12 01:23:40;;;;;;;17.9;10.1;;;;;;;-2.84;81.19727;96306.59;;;;
2020/01/12 01:24:42;;;;;;;18.6;10.25;;;;;;;-2.94;81.23926;96303.55;;;;
2020/01/12 01:25:43;;;;;;;18.6;10.25;;;;;;;-2.94;81.23926;96303.55;;;;
2020/01/12 01:26:44;;;;;;;18.6;10.25;;;;;;;-2.94;81.23926;96303.55;;;;
2020/01/12 01:27:45;;;;;;;18.6;10.25;;;;;;;-2.94;81.23926;96303.55;;;;
2020/01/12 01:28:46;;;;;;;18.6;10.25;;;;;;;-2.94;81.23926;96303.55;;;;
2020/01/12 01:29:46;;;;;;;18.6;10.25;;;;;;;-2.94;81.23926;96303.55;;;;
2020/01/12 01:30:47;;;;;;;18.6;10.25;;;;;;;-2.94;81.23926;96303.55;;;;
2020/01/12 01:31:50;;;;;;;18.6;10.25;;;;;;;-2.94;81.23926;96303.55;;;;
2020/01/12 01:32:50;;;;;;;18.6;10.25;;;;;;;-2.94;81.23926;96303.55;;;;
2020/01/12 01:33:51;;;;;;;18.6;10.25;;;;;;;-2.94;81.23926;96303.55;;;;
2020/01/12 01:34:51;;;;;;;18.6;10.25;;;;;;;-2.94;81.23926;96303.55;;;;
2020/01/12 01:35:53;;;;;;;16.45;9.849999;;;;;;;-2.98;81.24316;96299;;;;
2020/01/12 01:36:54;;;;;;;16.45;9.849999;;;;;;;-2.98;81.24316;96299;;;;
2020/01/12 01:37:54;;;;;;;16.45;9.849999;;;;;;;-2.98;81.24316;96299;;;;
2020/01/12 01:38:55;;;;;;;16.45;9.849999;;;;;;;-2.98;81.24316;96299;;;;
2020/01/12 01:39:55;;;;;;;16.45;9.849999;;;;;;;-2.98;81.24316;96299;;;;
2020/01/12 01:43:25;;;;;;;16.45;9.849999;;;;;;;-2.98;81.24316;96299;;;;
2020/01/12 01:44:27;;;;;;;16.45;9.849999;;;;;;;-2.98;81.24316;96299;;;;
2020/01/12 01:45:27;;;;;;;16.45;9.849999;;;;;;;-2.98;81.24316;96299;;;;
2020/01/12 01:46:28;;;;;;;15.75;9.849999;;;;;;;-3.09;81.32227;96281.98;;;;
2020/01/12 01:47:28;;;;;;;15.75;9.849999;;;;;;;-3.09;81.32227;96281.98;;;;
2020/01/12 01:48:29;;;;;;;15.75;9.849999;;;;;;;-3.09;81.32227;96281.98;;;;
2020/01/12 01:49:29;;;;;;;15.75;9.849999;;;;;;;-3.09;81.32227;96281.98;;;;
2020/01/12 01:50:30;;;;;;;15.75;9.849999;;;;;;;-3.09;81.32227;96281.98;;;;
2020/01/12 01:51:30;;;;;;;15.75;9.849999;;;;;;;-3.09;81.32227;96281.98;;;;
2020/01/12 01:52:31;;;;;;;15.75;9.849999;;;;;;;-3.09;81.32227;96281.98;;;;
2020/01/12 01:53:31;;;;;;;15.75;9.849999;;;;;;;-3.09;81.32227;96281.98;;;;
2020/01/12 01:54:32;;;;;;;15.75;9.849999;;;;;;;-3.09;81.32227;96281.98;;;;
2020/01/12 01:55:32;;;;;;;15.75;9.849999;;;;;;;-3.09;81.32227;96281.98;;;;
2020/01/12 01:56:33;;;;;;;12.9;8.400001;;;;;;;-3.11;81.42383;96271.12;;;;
2020/01/12 01:57:38;;;;;;;12.9;8.400001;;;;;;;-3.11;81.42383;96271.12;;;;
2020/01/12 01:58:39;;;;;;;12.9;8.400001;;;;;;;-3.11;81.42383;96271.12;;;;
2020/01/12 01:59:39;;;;;;;12.9;8.400001;;;;;;;-3.11;81.42383;96271.12;;;;
2020/01/12 02:00:39;;;;;;;12.9;8.400001;;;;;;;-3.11;81.42383;96271.12;;;;
2020/01/12 02:01:55;;;;;;;12.9;8.400001;;;;;;;-3.11;81.42383;96271.12;;;;
2020/01/12 02:02:56;;;;;;;12.9;8.400001;;;;;;;-3.11;81.42383;96271.12;;;;
2020/01/12 02:03:57;;;;;;;12.9;8.400001;;;;;;;-3.11;81.42383;96271.12;;;;
2020/01/12 02:04:57;;;;;;;12.9;8.400001;;;;;;;-3.11;81.42383;96271.12;;;;
2020/01/12 02:05:57;;;;;;;12.9;8.400001;;;;;;;-3.11;81.42383;96271.12;;;;
2020/01/12 02:06:58;;;;;;;12.9;8.400001;;;;;;;-3.11;81.42383;96271.12;;;;
2020/01/12 02:08:01;;;;;;;13.95;8.299999;;;;;;;-3.18;81.44238;96261.55;;;;
2020/01/12 02:09:04;;;;;;;13.95;8.299999;;;;;;;-3.18;81.44238;96261.55;;;;
2020/01/12 02:10:05;;;;;;;13.95;8.299999;;;;;;;-3.18;81.44238;96261.55;;;;
2020/01/12 02:14:30;;;;;;;13.95;8.299999;;;;;;;-3.18;81.44238;96261.55;;;;
2020/01/12 02:15:35;;;;;;;13.95;8.299999;;;;;;;-3.18;81.44238;96261.55;;;;
2020/01/12 02:16:40;;;;;;;13.95;8.299999;;;;;;;-3.18;81.44238;96261.55;;;;
2020/01/12 02:17:41;;;;;;;13.95;8.299999;;;;;;;-3.18;81.44238;96261.55;;;;
2020/01/12 02:18:42;;;;;;;14.1;7.900001;;;;;;;-3.14;81.42773;96248.91;;;;
2020/01/12 02:19:42;;;;;;;14.1;7.900001;;;;;;;-3.14;81.42773;96248.91;;;;
2020/01/12 02:20:43;;;;;;;14.1;7.900001;;;;;;;-3.14;81.42773;96248.91;;;;
2020/01/12 02:21:43;;;;;;;14.1;7.900001;;;;;;;-3.14;81.42773;96248.91;;;;
2020/01/12 02:22:43;;;;;;;14.1;7.900001;;;;;;;-3.14;81.42773;96248.91;;;;
2020/01/12 02:23:44;;;;;;;14.1;7.900001;;;;;;;-3.14;81.42773;96248.91;;;;
2020/01/12 02:24:44;;;;;;;14.1;7.900001;;;;;;;-3.14;81.42773;96248.91;;;;
2020/01/12 02:25:45;;;;;;;14.1;7.900001;;;;;;;-3.14;81.42773;96248.91;;;;
2020/01/12 02:26:45;;;;;;;14.1;7.900001;;;;;;;-3.14;81.42773;96248.91;;;;
2020/01/12 02:27:46;;;;;;;14.1;7.900001;;;;;;;-3.14;81.42773;96248.91;;;;
2020/01/12 02:28:46;;;;;;;13.2;7.8;;;;;;;-3.19;81.3584;96247.16;;;;
2020/01/12 02:29:47;;;;;;;13.2;7.8;;;;;;;-3.19;81.3584;96247.16;;;;
2020/01/12 02:30:47;;;;;;;13.2;7.8;;;;;;;-3.19;81.3584;96247.16;;;;
2020/01/12 02:31:48;;;;;;;13.2;7.8;;;;;;;-3.19;81.3584;96247.16;;;;
2020/01/12 02:32:48;;;;;;;13.2;7.8;;;;;;;-3.19;81.3584;96247.16;;;;
2020/01/12 02:33:49;;;;;;;13.2;7.8;;;;;;;-3.19;81.3584;96247.16;;;;
2020/01/12 02:34:49;;;;;;;13.2;7.8;;;;;;;-3.19;81.3584;96247.16;;;;
2020/01/12 02:35:50;;;;;;;13.2;7.8;;;;;;;-3.19;81.3584;96247.16;;;;
2020/01/12 02:36:50;;;;;;;13.2;7.8;;;;;;;-3.19;81.3584;96247.16;;;;
2020/01/12 02:37:51;;;;;;;13.2;7.8;;;;;;;-3.19;81.3584;96247.16;;;;
2020/01/12 02:38:51;;;;;;;13.2;7.8;;;;;;;-3.19;81.3584;96247.16;;;;
2020/01/12 02:39:51;;;;;;;10.55;6.7;;;;;;;-3.22;81.39258;96243.88;;;;
2020/01/12 02:40:52;;;;;;;10.55;6.7;;;;;;;-3.22;81.39258;96243.88;;;;
2020/01/12 02:41:52;;;;;;;10.55;6.7;;;;;;;-3.22;81.39258;96243.88;;;;
2020/01/12 02:42:53;;;;;;;10.55;6.7;;;;;;;-3.22;81.39258;96243.88;;;;
2020/01/12 02:43:53;;;;;;;10.55;6.7;;;;;;;-3.22;81.39258;96243.88;;;;
2020/01/12 02:44:54;;;;;;;10.55;6.7;;;;;;;-3.22;81.39258;96243.88;;;;
2020/01/12 02:45:54;;;;;;;10.55;6.7;;;;;;;-3.22;81.39258;96243.88;;;;
2020/01/12 02:46:55;;;;;;;10.55;6.7;;;;;;;-3.22;81.39258;96243.88;;;;
2020/01/12 02:47:55;;;;;;;10.55;6.7;;;;;;;-3.22;81.39258;96243.88;;;;
2020/01/12 02:48:56;;;;;;;10.55;6.7;;;;;;;-3.22;81.39258;96243.88;;;;
2020/01/12 02:49:56;;;;;;;12;7.35;;;;;;;-3.24;81.48145;96234.83;;;;
2020/01/12 02:50:56;;;;;;;12;7.35;;;;;;;-3.24;81.48145;96234.83;;;;
2020/01/12 02:51:57;;;;;;;12;7.35;;;;;;;-3.24;81.48145;96234.83;;;;
2020/01/12 02:52:57;;;;;;;12;7.35;;;;;;;-3.24;81.48145;96234.83;;;;
2020/01/12 02:53:58;;;;;;;12;7.35;;;;;;;-3.24;81.48145;96234.83;;;;
2020/01/12 02:54:58;;;;;;;12;7.35;;;;;;;-3.24;81.48145;96234.83;;;;
2020/01/12 02:56:06;;;;;;;12;7.35;;;;;;;-3.24;81.48145;96234.83;;;;
2020/01/12 02:57:07;;;;;;;12;7.35;;;;;;;-3.24;81.48145;96234.83;;;;
2020/01/12 02:58:07;;;;;;;12;7.35;;;;;;;-3.24;81.48145;96234.83;;;;
2020/01/12 02:59:08;;;;;;;12;7.35;;;;;;;-3.24;81.48145;96234.83;;;;
2020/01/12 03:00:08;;;;;;;12;7.35;;;;;;;-3.24;81.48145;96234.83;;;;
2020/01/12 03:01:10;;;;;;;11.2;7.150001;;;;;;;-3.22;81.39258;96232;;;;
2020/01/12 03:02:10;;;;;;;11.2;7.150001;;;;;;;-3.22;81.39258;96232;;;;
2020/01/12 03:03:11;;;;;;;11.2;7.150001;;;;;;;-3.22;81.39258;96232;;;;
2020/01/12 03:04:47;;;;;;;11.2;7.150001;;;;;;;-3.22;81.39258;96232;;;;
2020/01/12 03:05:48;;;;;;;11.2;7.150001;;;;;;;-3.22;81.39258;96232;;;;
2020/01/12 03:06:49;;;;;;;11.2;7.150001;;;;;;;-3.22;81.39258;96232;;;;
2020/01/12 03:07:50;;;;;;;11.2;7.150001;;;;;;;-3.22;81.39258;96232;;;;
2020/01/12 03:08:51;;;;;;;11.2;7.150001;;;;;;;-3.22;81.39258;96232;;;;
2020/01/12 03:09:51;;;;;;;11.2;7.150001;;;;;;;-3.22;81.39258;96232;;;;
2020/01/12 03:10:52;;;;;;;10.7;6.7;;;;;;;-3.29;81.37988;96223.82;;;;
2020/01/12 03:11:52;;;;;;;10.7;6.7;;;;;;;-3.29;81.37988;96223.82;;;;
2020/01/12 03:12:53;;;;;;;10.7;6.7;;;;;;;-3.29;81.37988;96223.82;;;;
2020/01/12 03:13:53;;;;;;;10.7;6.7;;;;;;;-3.29;81.37988;96223.82;;;;
2020/01/12 03:14:54;;;;;;;10.7;6.7;;;;;;;-3.29;81.37988;96223.82;;;;
2020/01/12 03:15:54;;;;;;;10.7;6.7;;;;;;;-3.29;81.37988;96223.82;;;;
2020/01/12 03:16:55;;;;;;;10.7;6.7;;;;;;;-3.29;81.37988;96223.82;;;;
2020/01/12 03:17:55;;;;;;;10.7;6.7;;;;;;;-3.29;81.37988;96223.82;;;;
2020/01/12 03:18:56;;;;;;;10.7;6.7;;;;;;;-3.29;81.37988;96223.82;;;;
2020/01/12 03:19:56;;;;;;;10.7;6.7;;;;;;;-3.29;81.37988;96223.82;;;;
2020/01/12 03:20:57;;;;;;;10.7;6.7;;;;;;;-3.29;81.37988;96223.82;;;;
2020/01/12 03:21:57;;;;;;;14.3;7.100001;;;;;;;-3.27;81.53809;96217;;;;
2020/01/12 03:22:58;;;;;;;14.3;7.100001;;;;;;;-3.27;81.53809;96217;;;;
2020/01/12 03:23:58;;;;;;;14.3;7.100001;;;;;;;-3.27;81.53809;96217;;;;
2020/01/12 03:24:58;;;;;;;14.3;7.100001;;;;;;;-3.27;81.53809;96217;;;;
2020/01/12 03:25:59;;;;;;;14.3;7.100001;;;;;;;-3.27;81.53809;96217;;;;
2020/01/12 03:26:59;;;;;;;14.3;7.100001;;;;;;;-3.27;81.53809;96217;;;;
2020/01/12 03:28:00;;;;;;;14.3;7.100001;;;;;;;-3.27;81.53809;96217;;;;
2020/01/12 03:29:00;;;;;;;14.3;7.100001;;;;;;;-3.27;81.53809;96217;;;;
2020/01/12 03:30:01;;;;;;;14.3;7.100001;;;;;;;-3.27;81.53809;96217;;;;
2020/01/12 03:31:02;;;;;;;14.3;7.100001;;;;;;;-3.27;81.53809;96217;;;;
2020/01/12 03:32:08;;;;;;;13.55;7.65;;;;;;;-3.32;81.42578;96220.04;;;;
2020/01/12 03:33:09;;;;;;;13.55;7.65;;;;;;;-3.32;81.42578;96220.04;;;;
2020/01/12 03:34:10;;;;;;;13.55;7.65;;;;;;;-3.32;81.42578;96220.04;;;;
2020/01/12 03:35:10;;;;;;;13.55;7.65;;;;;;;-3.32;81.42578;96220.04;;;;
2020/01/12 03:36:11;;;;;;;13.55;7.65;;;;;;;-3.32;81.42578;96220.04;;;;
2020/01/12 03:37:11;;;;;;;13.55;7.65;;;;;;;-3.32;81.42578;96220.04;;;;
2020/01/12 03:38:11;;;;;;;13.55;7.65;;;;;;;-3.32;81.42578;96220.04;;;;
2020/01/12 03:39:12;;;;;;;13.55;7.65;;;;;;;-3.32;81.42578;96220.04;;;;
2020/01/12 03:40:12;;;;;;;13.55;7.65;;;;;;;-3.32;81.42578;96220.04;;;;
2020/01/12 03:41:13;;;;;;;13.55;7.65;;;;;;;-3.32;81.42578;96220.04;;;;
2020/01/12 03:42:13;;;;;;;13.55;7.65;;;;;;;-3.32;81.42578;96220.04;;;;
2020/01/12 03:43:14;;;;;;;13.2;7.700001;;;;;;;-3.34;81.39941;96209.25;;;;
2020/01/12 03:44:14;;;;;;;13.2;7.700001;;;;;;;-3.34;81.39941;96209.25;;;;
2020/01/12 03:45:15;;;;;;;13.2;7.700001;;;;;;;-3.34;81.39941;96209.25;;;;
2020/01/12 03:46:15;;;;;;;13.2;7.700001;;;;;;;-3.34;81.39941;96209.25;;;;
2020/01/12 03:47:16;;;;;;;13.2;7.700001;;;;;;;-3.34;81.39941;96209.25;;;;
2020/01/12 03:48:16;;;;;;;13.2;7.700001;;;;;;;-3.34;81.39941;96209.25;;;;
2020/01/12 03:49:17;;;;;;;13.2;7.700001;;;;;;;-3.34;81.39941;96209.25;;;;
2020/01/12 03:50:17;;;;;;;13.2;7.700001;;;;;;;-3.34;81.39941;96209.25;;;;
2020/01/12 03:51:18;;;;;;;13.2;7.700001;;;;;;;-3.34;81.39941;96209.25;;;;
2020/01/12 03:52:18;;;;;;;13.2;7.700001;;;;;;;-3.34;81.39941;96209.25;;;;
2020/01/12 03:53:19;;;;;;;11.3;7.200001;;;;;;;-3.47;81.43848;96197.14;;;;
2020/01/12 03:54:19;;;;;;;11.3;7.200001;;;;;;;-3.47;81.43848;96197.14;;;;
2020/01/12 03:55:20;;;;;;;11.3;7.200001;;;;;;;-3.47;81.43848;96197.14;;;;
2020/01/12 03:56:21;;;;;;;11.3;7.200001;;;;;;;-3.47;81.43848;96197.14;;;;
2020/01/12 03:57:22;;;;;;;11.3;7.200001;;;;;;;-3.47;81.43848;96197.14;;;;
2020/01/12 03:58:22;;;;;;;11.3;7.200001;;;;;;;-3.47;81.43848;96197.14;;;;
2020/01/12 03:59:22;;;;;;;11.3;7.200001;;;;;;;-3.47;81.43848;96197.14;;;;
2020/01/12 04:00:23;;;;;;;11.3;7.200001;;;;;;;-3.47;81.43848;96197.14;;;;
2020/01/12 04:01:23;;;;;;;11.3;7.200001;;;;;;;-3.47;81.43848;96197.14;;;;
2020/01/12 04:02:24;;;;;;;11.3;7.200001;;;;;;;-3.47;81.43848;96197.14;;;;
2020/01/12 04:03:24;;;;;;;11.3;7.200001;;;;;;;-3.47;81.43848;96197.14;;;;
2020/01/12 04:04:25;;;;;;;11.6;6.849999;;;;;;;-3.52;81.625;96169.41;;;;
2020/01/12 04:05:25;;;;;;;11.6;6.849999;;;;;;;-3.52;81.625;96169.41;;;;
2020/01/12 04:06:27;;;;;;;11.6;6.849999;;;;;;;-3.52;81.625;96169.41;;;;
2020/01/12 04:07:27;;;;;;;11.6;6.849999;;;;;;;-3.52;81.625;96169.41;;;;
2020/01/12 04:08:30;;;;;;;11.6;6.849999;;;;;;;-3.52;81.625;96169.41;;;;
2020/01/12 04:09:32;;;;;;;11.6;6.849999;;;;;;;-3.52;81.625;96169.41;;;;
2020/01/12 04:10:32;;;;;;;11.6;6.849999;;;;;;;-3.52;81.625;96169.41;;;;
2020/01/12 04:11:33;;;;;;;11.6;6.849999;;;;;;;-3.52;81.625;96169.41;;;;
2020/01/12 04:12:33;;;;;;;11.6;6.849999;;;;;;;-3.52;81.625;96169.41;;;;
2020/01/12 04:13:34;;;;;;;11.6;6.849999;;;;;;;-3.52;81.625;96169.41;;;;
2020/01/12 04:14:35;;;;;;;13.6;7.8;;;;;;;-3.56;81.7832;96154.37;;;;
2020/01/12 04:15:36;;;;;;;13.6;7.8;;;;;;;-3.56;81.7832;96154.37;;;;
2020/01/12 04:16:36;;;;;;;13.6;7.8;;;;;;;-3.56;81.7832;96154.37;;;;
2020/01/12 04:17:37;;;;;;;13.6;7.8;;;;;;;-3.56;81.7832;96154.37;;;;
2020/01/12 04:18:37;;;;;;;13.6;7.8;;;;;;;-3.56;81.7832;96154.37;;;;
2020/01/12 04:19:37;;;;;;;13.6;7.8;;;;;;;-3.56;81.7832;96154.37;;;;
2020/01/12 04:20:39;;;;;;;13.6;7.8;;;;;;;-3.56;81.7832;96154.37;;;;
2020/01/12 04:21:40;;;;;;;13.6;7.8;;;;;;;-3.56;81.7832;96154.37;;;;
2020/01/12 04:22:40;;;;;;;13.6;7.8;;;;;;;-3.56;81.7832;96154.37;;;;
2020/01/12 04:23:40;;;;;;;13.6;7.8;;;;;;;-3.56;81.7832;96154.37;;;;
2020/01/12 04:24:41;;;;;;;13.6;7.8;;;;;;;-3.56;81.7832;96154.37;;;;
2020/01/12 04:25:41;;;;;;;12.35;7.200001;;;;;;;-3.52;81.625;96146.56;;;;
2020/01/12 04:26:42;;;;;;;12.35;7.200001;;;;;;;-3.52;81.625;96146.56;;;;
2020/01/12 04:27:42;;;;;;;12.35;7.200001;;;;;;;-3.52;81.625;96146.56;;;;
2020/01/12 04:28:43;;;;;;;12.35;7.200001;;;;;;;-3.52;81.625;96146.56;;;;
2020/01/12 04:29:43;;;;;;;12.35;7.200001;;;;;;;-3.52;81.625;96146.56;;;;
2020/01/12 04:30:44;;;;;;;12.35;7.200001;;;;;;;-3.52;81.625;96146.56;;;;
2020/01/12 04:31:44;;;;;;;12.35;7.200001;;;;;;;-3.52;81.625;96146.56;;;;
2020/01/12 04:32:45;;;;;;;12.35;7.200001;;;;;;;-3.52;81.625;96146.56;;;;
2020/01/12 04:33:45;;;;;;;12.35;7.200001;;;;;;;-3.52;81.625;96146.56;;;;
2020/01/12 04:34:45;;;;;;;12.35;7.200001;;;;;;;-3.52;81.625;96146.56;;;;
2020/01/12 04:35:46;;;;;;;13.9;7.549999;;;;;;;-3.61;81.59668;96145.59;;;;
2020/01/12 04:36:46;;;;;;;13.9;7.549999;;;;;;;-3.61;81.59668;96145.59;;;;
2020/01/12 04:37:47;;;;;;;13.9;7.549999;;;;;;;-3.61;81.59668;96145.59;;;;
2020/01/12 04:38:47;;;;;;;13.9;7.549999;;;;;;;-3.61;81.59668;96145.59;;;;
2020/01/12 04:39:48;;;;;;;13.9;7.549999;;;;;;;-3.61;81.59668;96145.59;;;;
2020/01/12 04:40:48;;;;;;;13.9;7.549999;;;;;;;-3.61;81.59668;96145.59;;;;
2020/01/12 04:41:49;;;;;;;13.9;7.549999;;;;;;;-3.61;81.59668;96145.59;;;;
2020/01/12 04:42:49;;;;;;;13.9;7.549999;;;;;;;-3.61;81.59668;96145.59;;;;
2020/01/12 04:43:50;;;;;;;13.9;7.549999;;;;;;;-3.61;81.59668;96145.59;;;;
2020/01/12 04:44:50;;;;;;;13.9;7.549999;;;;;;;-3.61;81.59668;96145.59;;;;
2020/01/12 04:45:51;;;;;;;13.9;7.549999;;;;;;;-3.61;81.59668;96145.59;;;;
2020/01/12 04:46:51;;;;;;;13.4;7.750001;;;;;;;-3.55;81.66992;96153.85;;;;
2020/01/12 04:47:51;;;;;;;13.4;7.750001;;;;;;;-3.55;81.66992;96153.85;;;;
2020/01/12 04:48:52;;;;;;;13.4;7.750001;;;;;;;-3.55;81.66992;96153.85;;;;
2020/01/12 04:49:52;;;;;;;13.4;7.750001;;;;;;;-3.55;81.66992;96153.85;;;;
2020/01/12 04:50:53;;;;;;;13.4;7.750001;;;;;;;-3.55;81.66992;96153.85;;;;
2020/01/12 04:51:53;;;;;;;13.4;7.750001;;;;;;;-3.55;81.66992;96153.85;;;;
2020/01/12 04:52:54;;;;;;;13.4;7.750001;;;;;;;-3.55;81.66992;96153.85;;;;
2020/01/12 04:53:54;;;;;;;13.4;7.750001;;;;;;;-3.55;81.66992;96153.85;;;;
2020/01/12 04:54:55;;;;;;;13.4;7.750001;;;;;;;-3.55;81.66992;96153.85;;;;
2020/01/12 04:55:55;;;;;;;13.4;7.750001;;;;;;;-3.55;81.66992;96153.85;;;;
2020/01/12 04:56:56;;;;;;;11.3;6.75;;;;;;;-3.56;81.56445;96140.78;;;;
2020/01/12 04:57:56;;;;;;;11.3;6.75;;;;;;;-3.56;81.56445;96140.78;;;;
2020/01/12 04:58:57;;;;;;;11.3;6.75;;;;;;;-3.56;81.56445;96140.78;;;;
2020/01/12 04:59:57;;;;;;;11.3;6.75;;;;;;;-3.56;81.56445;96140.78;;;;
2020/01/12 05:00:57;;;;;;;11.3;6.75;;;;;;;-3.56;81.56445;96140.78;;;;
2020/01/12 05:01:58;;;;;;;11.3;6.75;;;;;;;-3.56;81.56445;96140.78;;;;
2020/01/12 05:02:58;;;;;;;11.3;6.75;;;;;;;-3.56;81.56445;96140.78;;;;
2020/01/12 05:03:59;;;;;;;11.3;6.75;;;;;;;-3.56;81.56445;96140.78;;;;
2020/01/12 05:04:59;;;;;;;11.3;6.75;;;;;;;-3.56;81.56445;96140.78;;;;
2020/01/12 05:06:00;;;;;;;11.3;6.75;;;;;;;-3.56;81.56445;96140.78;;;;
2020/01/12 05:07:00;;;;;;;11.3;6.75;;;;;;;-3.56;81.56445;96140.78;;;;
2020/01/12 05:08:01;;;;;;;11.35;6.75;;;;;;;-3.58;81.66406;96146.67;;;;
2020/01/12 05:09:01;;;;;;;11.35;6.75;;;;;;;-3.58;81.66406;96146.67;;;;
2020/01/12 05:10:03;;;;;;;11.35;6.75;;;;;;;-3.58;81.66406;96146.67;;;;
2020/01/12 05:11:04;;;;;;;11.35;6.75;;;;;;;-3.58;81.66406;96146.67;;;;
2020/01/12 05:12:04;;;;;;;11.35;6.75;;;;;;;-3.58;81.66406;96146.67;;;;
2020/01/12 05:13:05;;;;;;;11.35;6.75;;;;;;;-3.58;81.66406;96146.67;;;;
2020/01/12 05:14:05;;;;;;;11.35;6.75;;;;;;;-3.58;81.66406;96146.67;;;;
2020/01/12 05:15:06;;;;;;;11.35;6.75;;;;;;;-3.58;81.66406;96146.67;;;;
2020/01/12 05:16:06;;;;;;;11.35;6.75;;;;;;;-3.58;81.66406;96146.67;;;;
2020/01/12 05:17:06;;;;;;;11.35;6.75;;;;;;;-3.58;81.66406;96146.67;;;;
2020/01/12 05:18:07;;;;;;;11.35;6.75;;;;;;;-3.58;81.66406;96146.67;;;;
2020/01/12 05:19:07;;;;;;;12.15;7.050001;;;;;;;-3.68;81.76855;96153.24;;;;
2020/01/12 05:20:08;;;;;;;12.15;7.050001;;;;;;;-3.68;81.76855;96153.24;;;;
2020/01/12 05:21:08;;;;;;;12.15;7.050001;;;;;;;-3.68;81.76855;96153.24;;;;
2020/01/12 05:22:09;;;;;;;12.15;7.050001;;;;;;;-3.68;81.76855;96153.24;;;;
2020/01/12 05:23:09;;;;;;;12.15;7.050001;;;;;;;-3.68;81.76855;96153.24;;;;
2020/01/12 05:24:10;;;;;;;12.15;7.050001;;;;;;;-3.68;81.76855;96153.24;;;;
2020/01/12 05:25:10;;;;;;;12.15;7.050001;;;;;;;-3.68;81.76855;96153.24;;;;
2020/01/12 05:26:11;;;;;;;12.15;7.050001;;;;;;;-3.68;81.76855;96153.24;;;;
2020/01/12 05:27:11;;;;;;;12.15;7.050001;;;;;;;-3.68;81.76855;96153.24;;;;
2020/01/12 05:28:12;;;;;;;12.15;7.050001;;;;;;;-3.68;81.76855;96153.24;;;;
2020/01/12 05:29:12;;;;;;;11.5;6.650001;;;;;;;-3.74;81.63477;96139.18;;;;
2020/01/12 05:30:13;;;;;;;11.5;6.650001;;;;;;;-3.74;81.63477;96139.18;;;;
2020/01/12 05:31:13;;;;;;;11.5;6.650001;;;;;;;-3.74;81.63477;96139.18;;;;
2020/01/12 05:32:14;;;;;;;11.5;6.650001;;;;;;;-3.74;81.63477;96139.18;;;;
2020/01/12 05:33:14;;;;;;;11.5;6.650001;;;;;;;-3.74;81.63477;96139.18;;;;
2020/01/12 05:34:15;;;;;;;11.5;6.650001;;;;;;;-3.74;81.63477;96139.18;;;;
2020/01/12 05:35:15;;;;;;;11.5;6.650001;;;;;;;-3.74;81.63477;96139.18;;;;
2020/01/12 05:36:15;;;;;;;11.5;6.650001;;;;;;;-3.74;81.63477;96139.18;;;;
2020/01/12 05:37:16;;;;;;;11.5;6.650001;;;;;;;-3.74;81.63477;96139.18;;;;
2020/01/12 05:38:17;;;;;;;11.5;6.650001;;;;;;;-3.74;81.63477;96139.18;;;;
2020/01/12 05:39:17;;;;;;;11.5;6.650001;;;;;;;-3.74;81.63477;96139.18;;;;
2020/01/12 05:40:17;;;;;;;9.35;6.25;;;;;;;-3.89;81.79004;96145.75;;;;
2020/01/12 05:41:18;;;;;;;9.35;6.25;;;;;;;-3.89;81.79004;96145.75;;;;
2020/01/12 05:42:18;;;;;;;9.35;6.25;;;;;;;-3.89;81.79004;96145.75;;;;
2020/01/12 05:43:19;;;;;;;9.35;6.25;;;;;;;-3.89;81.79004;96145.75;;;;
2020/01/12 05:44:19;;;;;;;9.35;6.25;;;;;;;-3.89;81.79004;96145.75;;;;
2020/01/12 05:45:20;;;;;;;9.35;6.25;;;;;;;-3.89;81.79004;96145.75;;;;